Saint Benedict, Pennsylvania
Current Conditions -  °F | °C
As of 6:35 AM on Saturday 22 Nov 2014 (Local Time) from KIDI Reporting Station
Few Clouds Few Clouds  
Wind Chill: 18°   Ceiling: Unl
Heat Index: 18°   Visibility: 10mi
Dew Point: 10°   Wind: 3mph
Humidity: 73%   Direction: 100°E
Pressure: 30.37"   Gusts: NA
Location:  40.63°N, 78.73°W
Report Text: KIDI 221135Z AUTO 10003KT 10SM FEW060 M08/M12 A3037 RMK A01
Loading
Personal Weather Stations






























Interactive Weather Map New forecast layout! Learn more

10-Day Weather Forecast

Advertisements
Track Severe Weather on mobile